Time;durP1;ratioP1;P1;durP2;ratioP2;P2;SDS_P1;SDS_P2;PMS_P1;PMS_P2;Temp;Humidity;BMP_temperature;BMP_pressure;BME280_temperature;BME280_humidity;BME280_pressure;Samples;Min_cycle;Max_cycle;Signal;HPM_P1;HPM_P2
2023/08/27 00:04:44;;;;;;;7.40;5.33;;;;;13.80;100461.00;;;;10063810;28;20230;-76
2023/08/27 00:09:45;;;;;;;7.67;5.57;;;;;13.80;100462.00;;;;10045013;28;20346;-77
2023/08/27 00:14:47;;;;;;;6.80;4.80;;;;;13.90;100446.00;;;;10082923;28;20471;-76
2023/08/27 00:19:48;;;;;;;9.57;5.93;;;;;14.00;100439.00;;;;10081310;28;20337;-76
2023/08/27 00:24:49;;;;;;;9.30;5.40;;;;;14.00;100445.00;;;;10086411;28;21999;-75
2023/08/27 00:29:51;;;;;;;9.88;5.10;;;;;14.10;100438.00;;;;10063668;28;20213;-75
2023/08/27 00:34:52;;;;;;;10.77;5.50;;;;;14.10;100440.00;;;;10047818;28;20222;-76
2023/08/27 00:39:54;;;;;;;7.65;5.57;;;;;14.10;100435.00;;;;10051755;28;20327;-76
2023/08/27 00:44:55;;;;;;;10.90;5.23;;;;;14.10;100442.00;;;;10079500;28;20257;-77
2023/08/27 00:49:57;;;;;;;8.83;5.97;;;;;14.20;100448.00;;;;10088472;28;20221;-78
2023/08/27 00:55:01;;;;;;;11.30;6.97;;;;;14.20;100438.00;;;;10076802;28;20372;-76
2023/08/27 01:00:03;;;;;;;10.17;6.37;;;;;14.20;100441.00;;;;10050253;28;20681;-76
2023/08/27 01:05:06;;;;;;;11.55;7.10;;;;;14.20;100448.00;;;;10067930;28;21755;-75
2023/08/27 01:10:44;;;;;;;10.70;6.77;;;;;14.30;100429.00;;;;10072475;28;20284;-76
2023/08/27 01:15:46;;;;;;;12.30;5.97;;;;;14.30;100428.00;;;;10001871;28;20329;-77
2023/08/27 01:20:47;;;;;;;8.90;6.05;;;;;14.20;100421.00;;;;10076451;28;20248;-75
2023/08/27 01:25:50;;;;;;;8.77;5.82;;;;;14.20;100416.00;;;;10070423;28;20249;-76
2023/08/27 01:31:14;;;;;;;11.23;5.35;;;;;14.20;100400.00;;;;10049290;28;20395;-76
2023/08/27 01:36:19;;;;;;;14.43;5.85;;;;;14.10;100389.00;;;;10085984;28;20988;-75
2023/08/27 01:41:20;;;;;;;12.80;5.78;;;;;14.10;100391.00;;;;10067162;28;20911;-76
2023/08/27 01:46:21;;;;;;;9.37;5.07;;;;;14.10;100390.00;;;;10091815;28;20240;-76
2023/08/27 01:51:23;;;;;;;11.32;5.32;;;;;14.10;100391.00;;;;10104444;28;21994;-76
2023/08/27 01:56:24;;;;;;;11.50;5.63;;;;;14.10;100386.00;;;;10085290;28;20214;-76
2023/08/27 02:01:26;;;;;;;13.75;5.20;;;;;14.10;100391.00;;;;10079013;28;20237;-76
2023/08/27 02:06:27;;;;;;;8.93;5.20;;;;;14.10;100379.00;;;;10085174;28;20214;-76
2023/08/27 02:11:30;;;;;;;8.18;4.82;;;;;14.10;100379.00;;;;10073266;28;20222;-75
2023/08/27 02:16:33;;;;;;;7.88;4.70;;;;;14.10;100382.00;;;;10095938;28;20214;-76
2023/08/27 02:21:35;;;;;;;13.35;5.88;;;;;14.10;100381.00;;;;10095377;28;21617;-76
2023/08/27 02:26:36;;;;;;;9.50;5.10;;;;;14.10;100383.00;;;;10068691;28;20221;-76
2023/08/27 02:31:38;;;;;;;8.35;5.05;;;;;14.10;100380.00;;;;10111010;28;20684;-75
2023/08/27 02:36:39;;;;;;;10.23;5.18;;;;;14.10;100387.00;;;;10084698;28;20917;-76
2023/08/27 02:41:40;;;;;;;8.23;4.30;;;;;14.00;100390.00;;;;10077460;28;20670;-76
2023/08/27 02:46:41;;;;;;;9.93;4.55;;;;;14.00;100392.00;;;;10052508;28;20239;-75
2023/08/27 02:51:42;;;;;;;6.53;3.83;;;;;13.90;100367.00;;;;10059072;28;20213;-76
2023/08/27 02:56:44;;;;;;;5.60;3.83;;;;;13.80;100366.00;;;;10079885;28;20211;-76
2023/08/27 03:01:45;;;;;;;12.67;4.37;;;;;13.80;100368.00;;;;10080368;28;20226;-75
2023/08/27 03:06:47;;;;;;;8.30;3.93;;;;;13.70;100378.00;;;;10076563;28;20704;-76
2023/08/27 03:11:48;;;;;;;8.82;3.80;;;;;13.70;100371.00;;;;10081866;28;20207;-75
2023/08/27 03:16:49;;;;;;;9.00;3.93;;;;;13.70;100364.00;;;;10066014;28;20362;-76
2023/08/27 03:21:51;;;;;;;6.93;3.67;;;;;13.70;100365.00;;;;10064187;28;20320;-76
2023/08/27 03:26:52;;;;;;;9.27;4.00;;;;;13.60;100357.00;;;;10069190;28;20217;-75
2023/08/27 03:31:53;;;;;;;5.47;3.77;;;;;13.60;100355.00;;;;10031290;28;20222;-75
2023/08/27 03:36:55;;;;;;;6.73;3.57;;;;;13.60;100366.00;;;;10062893;28;20453;-76
2023/08/27 03:41:57;;;;;;;8.20;3.73;;;;;13.50;100360.00;;;;10065045;28;20937;-75
2023/08/27 03:46:58;;;;;;;8.85;3.80;;;;;13.40;100355.00;;;;10062772;28;21482;-75
2023/08/27 03:52:00;;;;;;;9.33;4.83;;;;;13.40;100362.00;;;;10061939;28;21692;-75
2023/08/27 03:57:01;;;;;;;7.67;4.27;;;;;13.50;100365.00;;;;10044749;28;20297;-76
2023/08/27 04:02:03;;;;;;;10.43;3.97;;;;;13.60;100373.00;;;;10090726;28;20572;-76
2023/08/27 04:07:04;;;;;;;7.55;5.07;;;;;13.50;100374.00;;;;10054064;28;20229;-75
2023/08/27 04:12:06;;;;;;;9.47;5.03;;;;;13.50;100370.00;;;;10065704;28;20731;-76
2023/08/27 04:17:07;;;;;;;8.03;5.30;;;;;13.50;100370.00;;;;10089988;28;21688;-75
2023/08/27 04:22:09;;;;;;;8.23;4.67;;;;;13.50;100372.00;;;;10044403;28;20805;-76
2023/08/27 04:27:11;;;;;;;10.43;5.37;;;;;13.50;100366.00;;;;10059907;28;20239;-76
2023/08/27 04:32:13;;;;;;;7.47;5.28;;;;;13.60;100367.00;;;;10092407;28;20890;-76
2023/08/27 04:37:14;;;;;;;9.27;5.97;;;;;13.60;100361.00;;;;10048323;28;20214;-76
2023/08/27 04:42:15;;;;;;;9.77;4.80;;;;;13.60;100362.00;;;;10079723;28;20340;-76
2023/08/27 04:47:17;;;;;;;12.33;5.37;;;;;13.60;100373.00;;;;10097760;28;20210;-76
2023/08/27 04:52:18;;;;;;;8.73;5.47;;;;;13.60;100385.00;;;;10056762;28;20219;-76
2023/08/27 04:57:34;;;;;;;11.57;6.00;;;;;13.60;100380.00;;;;10068873;28;20801;-76
2023/08/27 05:02:36;;;;;;;10.48;5.68;;;;;13.60;100385.00;;;;10070416;28;20222;-76
2023/08/27 05:07:37;;;;;;;13.23;6.97;;;;;13.60;100393.00;;;;10066632;28;20222;-75
2023/08/27 05:12:39;;;;;;;12.77;6.50;;;;;13.70;100388.00;;;;10081950;28;21282;-75
2023/08/27 05:17:42;;;;;;;8.60;6.00;;;;;13.80;100391.00;;;;10067962;28;20249;-75
2023/08/27 05:22:43;;;;;;;9.40;6.25;;;;;13.90;100386.00;;;;10060561;28;20655;-76
2023/08/27 05:27:45;;;;;;;9.67;7.07;;;;;14.10;100378.00;;;;10083153;28;20576;-76
2023/08/27 05:32:47;;;;;;;12.90;6.38;;;;;14.20;100375.00;;;;10048104;28;20274;-76
2023/08/27 05:37:48;;;;;;;10.55;6.35;;;;;14.30;100386.00;;;;10086241;28;20898;-76
2023/08/27 05:42:49;;;;;;;9.45;5.72;;;;;14.40;100370.00;;;;10084499;28;20309;-76
2023/08/27 05:47:51;;;;;;;13.88;6.72;;;;;14.50;100369.00;;;;10111123;28;20301;-75
2023/08/27 05:52:53;;;;;;;8.50;5.40;;;;;14.70;100369.00;;;;10053026;28;20283;-76
2023/08/27 05:57:55;;;;;;;6.85;5.30;;;;;14.80;100372.00;;;;10047845;28;20310;-76
2023/08/27 06:02:56;;;;;;;12.15;5.85;;;;;14.90;100367.00;;;;10085926;28;20226;-76
2023/08/27 06:08:02;;;;;;;9.55;5.43;;;;;15.10;100358.00;;;;10067067;28;20216;-76
2023/08/27 06:13:04;;;;;;;8.65;5.93;;;;;15.30;100366.00;;;;10076517;28;20238;-76
2023/08/27 06:18:07;;;;;;;8.52;5.82;;;;;15.60;100364.00;;;;10073705;28;21251;-76
2023/08/27 06:23:08;;;;;;;9.18;4.90;;;;;16.00;100358.00;;;;10069240;28;20222;-76
2023/08/27 06:28:10;;;;;;;7.68;4.95;;;;;16.30;100372.00;;;;10071091;28;21647;-76
2023/08/27 06:33:12;;;;;;;10.02;4.55;;;;;16.70;100369.00;;;;10063036;28;20907;-76
2023/08/27 06:38:14;;;;;;;14.38;5.25;;;;;17.10;100374.00;;;;10070617;28;20210;-76
2023/08/27 06:43:17;;;;;;;7.20;3.63;;;;;17.30;100374.00;;;;10059271;28;21335;-75
2023/08/27 06:48:19;;;;;;;10.32;3.75;;;;;17.60;100374.00;;;;10056347;28;20497;-76
2023/08/27 06:53:20;;;;;;;8.40;3.10;;;;;17.90;100367.00;;;;10078462;28;20246;-76
2023/08/27 06:58:23;;;;;;;4.15;3.13;;;;;18.10;100377.00;;;;10060845;28;20261;-76
2023/08/27 07:03:25;;;;;;;5.53;2.60;;;;;18.30;100389.00;;;;10060976;28;20229;-75
2023/08/27 07:08:27;;;;;;;4.93;2.58;;;;;18.60;100383.00;;;;10044454;28;20242;-75
2023/08/27 07:13:28;;;;;;;10.60;2.80;;;;;18.80;100394.00;;;;10051586;28;20213;-76
2023/08/27 07:18:29;;;;;;;3.08;2.42;;;;;18.90;100388.00;;;;10058209;28;20531;-76
2023/08/27 07:23:31;;;;;;;5.43;2.10;;;;;18.80;100389.00;;;;10090749;28;21138;-76
2023/08/27 07:28:32;;;;;;;5.57;2.20;;;;;18.60;100382.00;;;;10057619;28;20459;-77
2023/08/27 07:33:34;;;;;;;4.32;2.10;;;;;18.50;100390.00;;;;10066442;28;20990;-76
2023/08/27 07:38:40;;;;;;;4.20;2.17;;;;;18.60;100387.00;;;;10087480;28;20217;-76
2023/08/27 07:43:42;;;;;;;5.68;2.00;;;;;18.80;100394.00;;;;10082340;28;20227;-76
2023/08/27 07:48:44;;;;;;;4.05;2.40;;;;;18.60;100376.00;;;;10082731;28;20813;-76
2023/08/27 07:53:45;;;;;;;4.57;2.50;;;;;18.50;100384.00;;;;10074013;28;20249;-76
2023/08/27 07:58:46;;;;;;;6.63;2.53;;;;;19.00;100391.00;;;;10081172;28;21659;-75
2023/08/27 08:03:48;;;;;;;4.57;1.95;;;;;19.20;100387.00;;;;10084053;28;21336;-75
2023/08/27 08:08:49;;;;;;;5.13;2.00;;;;;19.10;100390.00;;;;10080296;28;20213;-76
2023/08/27 08:13:51;;;;;;;5.43;2.40;;;;;19.60;100389.00;;;;10080289;28;20198;-76
2023/08/27 08:18:52;;;;;;;6.57;2.10;;;;;19.70;100395.00;;;;10093001;28;20624;-76
2023/08/27 08:23:53;;;;;;;10.80;2.13;;;;;19.60;100404.00;;;;10080594;28;20221;-76
2023/08/27 08:28:55;;;;;;;10.05;2.22;;;;;20.20;100414.00;;;;10059481;28;21517;-76
2023/08/27 08:33:56;;;;;;;6.13;1.83;;;;;19.60;100410.00;;;;10091106;28;20220;-76
2023/08/27 08:38:57;;;;;;;4.63;1.58;;;;;20.20;100415.00;;;;10065475;28;21504;-77
2023/08/27 08:44:12;;;;;;;6.55;2.75;;;;;21.50;100408.00;;;;10091143;28;20257;-77
2023/08/27 08:49:15;;;;;;;8.18;1.92;;;;;22.50;100407.00;;;;10085692;28;20802;-77
2023/08/27 08:54:21;;;;;;;3.67;1.40;;;;;23.20;100405.00;;;;10058233;28;20907;-77
2023/08/27 08:59:27;;;;;;;4.53;1.60;;;;;23.80;100405.00;;;;10100901;28;20513;-76
2023/08/27 09:04:29;;;;;;;3.00;1.42;;;;;24.50;100407.00;;;;10063128;28;20234;-77
2023/08/27 09:09:31;;;;;;;4.15;1.50;;;;;22.70;100396.00;;;;10064356;28;20226;-77
2023/08/27 09:14:34;;;;;;;1.88;1.17;;;;;23.80;100390.00;;;;10086238;28;21092;-77
2023/08/27 09:19:35;;;;;;;4.28;1.45;;;;;24.20;100383.00;;;;10093326;28;20870;-76
2023/08/27 09:24:36;;;;;;;2.50;1.10;;;;;24.20;100382.00;;;;10067865;28;20245;-77
2023/08/27 09:29:41;;;;;;;2.60;1.27;;;;;23.90;100380.00;;;;10088565;28;20248;-78
2023/08/27 09:34:43;;;;;;;3.40;1.20;;;;;23.00;100379.00;;;;10098107;28;20202;-77
2023/08/27 09:39:45;;;;;;;2.38;1.27;;;;;23.50;100374.00;;;;10085174;28;20197;-77
2023/08/27 09:44:50;;;;;;;2.47;1.05;;;;;22.30;100366.00;;;;10112700;28;20704;-77
2023/08/27 09:49:52;;;;;;;2.63;0.93;;;;;23.30;100361.00;;;;10099391;28;20258;-77
2023/08/27 09:54:53;;;;;;;2.28;1.00;;;;;24.40;100363.00;;;;10100580;28;20210;-77
2023/08/27 09:59:54;;;;;;;3.03;1.40;;;;;24.70;100369.00;;;;10068390;28;20206;-77
2023/08/27 10:04:56;;;;;;;3.00;1.33;;;;;25.00;100362.00;;;;10088363;28;20234;-78
2023/08/27 10:09:59;;;;;;;2.13;1.08;;;;;24.90;100372.00;;;;10098026;28;20539;-78
2023/08/27 10:15:03;;;;;;;3.75;1.20;;;;;25.20;100361.00;;;;10097119;28;20696;-78
2023/08/27 10:20:05;;;;;;;5.38;1.08;;;;;25.60;100355.00;;;;10100491;28;20801;-77
2023/08/27 10:25:07;;;;;;;2.97;1.20;;;;;26.10;100359.00;;;;10093066;28;20556;-78
2023/08/27 10:30:10;;;;;;;2.22;1.20;;;;;26.10;100362.00;;;;10056846;28;20222;-77
2023/08/27 10:35:12;;;;;;;3.13;1.00;;;;;26.20;100370.00;;;;10091705;28;20621;-78
2023/08/27 10:40:15;;;;;;;2.17;1.10;;;;;25.80;100381.00;;;;10084550;28;20339;-78
2023/08/27 10:45:21;;;;;;;1.55;0.85;;;;;24.70;100387.00;;;;10085102;28;20231;-78
2023/08/27 10:50:23;;;;;;;2.92;1.20;;;;;25.30;100395.00;;;;10084913;28;20210;-78
2023/08/27 10:55:37;;;;;;;1.80;1.27;;;;;24.30;100397.00;;;;10083272;28;20918;-78
2023/08/27 11:01:02;;;;;;;2.13;1.52;;;;;24.80;100398.00;;;;10066203;28;20298;-79
2023/08/27 11:06:13;;;;;;;2.60;1.90;;;;;24.80;100405.00;;;;10091228;28;20529;-78
2023/08/27 11:11:15;;;;;;;3.28;1.45;;;;;24.40;100392.00;;;;10067924;28;20510;-79
2023/08/27 11:16:17;;;;;;;2.05;1.42;;;;;23.00;100409.00;;;;10094307;28;20241;-78
2023/08/27 11:21:24;;;;;;;3.20;1.52;;;;;21.30;100404.00;;;;10087923;28;20859;-77
2023/08/27 11:26:27;;;;;;;2.78;2.10;;;;;19.30;100429.00;;;;10064699;28;20223;-77
2023/08/27 11:31:31;;;;;;;6.10;2.33;;;;;18.00;100462.00;;;;10063670;28;20334;-77
2023/08/27 11:36:33;;;;;;;5.43;2.00;;;;;17.10;100434.00;;;;10105126;28;20222;-77
2023/08/27 11:41:36;;;;;;;3.03;1.95;;;;;16.90;100436.00;;;;10097742;28;22192;-76
2023/08/27 11:46:38;;;;;;;3.35;2.13;;;;;16.90;100428.00;;;;10066284;28;20217;-76
2023/08/27 11:51:43;;;;;;;5.18;2.65;;;;;17.10;100445.00;;;;10110766;28;20960;-76
2023/08/27 11:56:44;;;;;;;5.68;3.22;;;;;17.20;100448.00;;;;10078759;28;21537;-77
2023/08/27 12:01:46;;;;;;;4.63;2.97;;;;;17.20;100474.00;;;;10040617;28;20227;-77
2023/08/27 12:06:52;;;;;;;3.10;1.88;;;;;17.00;100473.00;;;;10075521;28;20195;-77
2023/08/27 12:12:07;;;;;;;3.03;1.52;;;;;16.40;100501.00;;;;10066854;28;20214;-77
2023/08/27 12:17:09;;;;;;;1.48;1.38;;;;;16.20;100493.00;;;;10075250;28;20252;-76
2023/08/27 12:22:17;;;;;;;1.73;1.00;;;;;16.90;100486.00;;;;10053276;28;20560;-77
2023/08/27 12:27:22;;;;;;;0.82;0.80;;;;;20.40;100487.00;;;;10060560;28;20928;-77
2023/08/27 12:32:30;;;;;;;1.00;0.90;;;;;19.90;100509.00;;;;10073942;28;20203;-77
2023/08/27 12:37:31;;;;;;;1.55;1.40;;;;;18.80;100486.00;;;;10061452;28;20194;-77
2023/08/27 12:42:32;;;;;;;1.60;1.40;;;;;17.80;100493.00;;;;10106527;28;20236;-76
2023/08/27 12:47:33;;;;;;;4.47;1.60;;;;;19.10;100494.00;;;;10067789;28;20268;-77
2023/08/27 12:52:35;;;;;;;1.73;0.80;;;;;19.70;100496.00;;;;10092761;28;20297;-76
2023/08/27 12:57:39;;;;;;;1.83;0.80;;;;;19.00;100489.00;;;;10102082;28;20213;-77
2023/08/27 13:02:40;;;;;;;1.20;1.10;;;;;18.50;100490.00;;;;10081470;28;20624;-76
2023/08/27 13:07:42;;;;;;;1.52;1.23;;;;;18.30;100478.00;;;;10083182;28;21254;-76
2023/08/27 13:12:43;;;;;;;4.55;1.58;;;;;18.50;100472.00;;;;10105833;28;20205;-76
2023/08/27 13:17:44;;;;;;;1.88;1.70;;;;;18.30;100478.00;;;;10132551;28;20259;-76
2023/08/27 13:22:46;;;;;;;2.58;1.58;;;;;18.20;100488.00;;;;10128371;28;20218;-76
2023/08/27 13:27:47;;;;;;;2.80;1.70;;;;;18.30;100478.00;;;;10146796;28;20628;-77
2023/08/27 13:32:48;;;;;;;3.88;2.08;;;;;20.00;100457.00;;;;10123084;28;20214;-76
2023/08/27 13:37:50;;;;;;;2.20;1.67;;;;;20.80;100457.00;;;;10124067;28;20256;-77
2023/08/27 13:42:51;;;;;;;1.30;1.20;;;;;21.80;100454.00;;;;10107352;28;20643;-78
2023/08/27 13:47:53;;;;;;;1.75;1.38;;;;;22.50;100453.00;;;;10109858;28;20209;-78
2023/08/27 13:52:55;;;;;;;5.10;1.30;;;;;21.00;100465.00;;;;10102919;28;20234;-78
2023/08/27 13:57:57;;;;;;;1.50;1.40;;;;;20.60;100460.00;;;;10119889;28;20210;-78
2023/08/27 14:02:58;;;;;;;2.85;1.48;;;;;20.50;100464.00;;;;10099779;28;20517;-78
2023/08/27 14:08:00;;;;;;;1.75;1.65;;;;;20.80;100453.00;;;;10097395;28;21926;-78
2023/08/27 14:13:02;;;;;;;1.80;1.70;;;;;20.90;100466.00;;;;10117149;28;20214;-78
2023/08/27 14:18:04;;;;;;;2.95;1.60;;;;;21.10;100462.00;;;;10097350;28;20910;-76
2023/08/27 14:23:06;;;;;;;3.53;1.50;;;;;21.20;100451.00;;;;10119283;28;20234;-76
2023/08/27 14:28:07;;;;;;;2.58;1.25;;;;;22.00;100450.00;;;;10103161;28;22026;-76
2023/08/27 14:33:08;;;;;;;2.38;1.20;;;;;21.50;100428.00;;;;10119612;28;21061;-77
2023/08/27 14:38:10;;;;;;;3.40;1.25;;;;;21.80;100439.00;;;;10094382;28;21335;-77
2023/08/27 14:43:12;;;;;;;2.33;1.10;;;;;23.40;100431.00;;;;10116121;28;20233;-77
2023/08/27 14:48:13;;;;;;;1.15;1.05;;;;;23.70;100437.00;;;;10111477;28;20836;-78
2023/08/27 14:53:14;;;;;;;0.82;0.70;;;;;24.80;100413.00;;;;10112837;28;20217;-78
2023/08/27 14:58:15;;;;;;;1.02;0.70;;;;;23.00;100431.00;;;;10088766;28;20221;-77
2023/08/27 15:03:19;;;;;;;1.30;0.60;;;;;20.80;100440.00;;;;10089447;28;20442;-79
2023/08/27 15:08:21;;;;;;;1.70;0.80;;;;;20.00;100446.00;;;;10085751;28;20248;-77
2023/08/27 15:13:22;;;;;;;1.63;0.63;;;;;19.60;100445.00;;;;10098762;28;20290;-77
2023/08/27 15:18:24;;;;;;;1.70;0.70;;;;;19.50;100453.00;;;;10112292;28;21951;-77
2023/08/27 15:23:26;;;;;;;0.65;0.65;;;;;19.50;100459.00;;;;10125122;28;20230;-77
2023/08/27 15:28:27;;;;;;;1.40;0.90;;;;;19.50;100459.00;;;;10108224;28;20218;-78
2023/08/27 15:33:28;;;;;;;2.97;0.85;;;;;19.70;100459.00;;;;10126346;28;20289;-77
2023/08/27 15:38:30;;;;;;;1.95;0.88;;;;;19.50;100463.00;;;;10103080;28;20225;-77
2023/08/27 15:43:33;;;;;;;0.75;0.75;;;;;19.40;100468.00;;;;10101639;28;21139;-77
2023/08/27 15:48:34;;;;;;;1.50;0.63;;;;;19.10;100472.00;;;;10104675;28;20225;-75
2023/08/27 15:53:35;;;;;;;2.75;0.63;;;;;18.90;100474.00;;;;10124449;28;20214;-77
2023/08/27 15:58:37;;;;;;;3.70;1.10;;;;;18.80;100480.00;;;;10101951;28;21755;-79
2023/08/27 16:03:38;;;;;;;2.15;0.60;;;;;18.90;100471.00;;;;10088186;28;20226;-76
2023/08/27 16:08:40;;;;;;;0.93;0.80;;;;;19.00;100471.00;;;;10106015;28;20222;-78
2023/08/27 16:13:41;;;;;;;1.55;1.10;;;;;19.00;100479.00;;;;10102271;28;20210;-77
2023/08/27 16:18:42;;;;;;;0.60;0.60;;;;;18.90;100478.00;;;;10106814;28;20210;-77
2023/08/27 16:23:45;;;;;;;1.60;0.82;;;;;18.90;100479.00;;;;10100661;28;20301;-77
2023/08/27 16:28:46;;;;;;;1.95;0.65;;;;;18.90;100481.00;;;;10083400;28;20225;-77
2023/08/27 16:33:48;;;;;;;1.15;0.73;;;;;18.80;100476.00;;;;10106847;28;20214;-78
2023/08/27 16:38:49;;;;;;;0.65;0.65;;;;;18.70;100486.00;;;;10121951;28;20274;-78
2023/08/27 16:43:50;;;;;;;1.38;0.60;;;;;18.70;100492.00;;;;10123252;28;20317;-78
2023/08/27 16:48:52;;;;;;;1.58;0.60;;;;;18.60;100500.00;;;;10102950;28;22071;-79
2023/08/27 16:53:54;;;;;;;1.27;0.90;;;;;18.50;100495.00;;;;10123247;28;20214;-78
2023/08/27 16:58:55;;;;;;;0.65;0.60;;;;;18.40;100492.00;;;;10119484;28;20847;-78
2023/08/27 17:04:00;;;;;;;1.58;0.85;;;;;18.40;100491.00;;;;10101495;28;20230;-78
2023/08/27 17:09:01;;;;;;;2.47;0.65;;;;;18.30;100496.00;;;;10103603;28;20380;-78
2023/08/27 17:14:03;;;;;;;1.17;0.70;;;;;18.20;100494.00;;;;10102654;28;20217;-77
2023/08/27 17:19:04;;;;;;;3.22;0.80;;;;;18.10;100515.00;;;;10098755;28;20225;-78
2023/08/27 17:24:06;;;;;;;1.63;0.70;;;;;18.00;100528.00;;;;10098756;28;20321;-79
2023/08/27 17:29:07;;;;;;;1.10;0.55;;;;;17.90;100521.00;;;;10108138;28;21914;-78
2023/08/27 17:34:09;;;;;;;1.48;0.68;;;;;17.80;100535.00;;;;10104329;28;20726;-78
2023/08/27 17:39:11;;;;;;;0.80;0.75;;;;;17.70;100530.00;;;;10106718;28;20880;-78
2023/08/27 17:44:12;;;;;;;1.63;0.77;;;;;17.50;100536.00;;;;10111023;28;20402;-78
2023/08/27 17:49:13;;;;;;;1.90;0.90;;;;;17.40;100544.00;;;;10107758;28;20233;-77
2023/08/27 17:54:15;;;;;;;0.93;0.50;;;;;17.20;100557.00;;;;10128616;28;20303;-79
2023/08/27 17:59:16;;;;;;;1.73;1.08;;;;;17.10;100544.00;;;;10126645;28;21984;-79
2023/08/27 18:04:17;;;;;;;0.60;0.60;;;;;17.00;100557.00;;;;10102139;28;20497;-78
2023/08/27 18:09:19;;;;;;;1.88;0.80;;;;;16.90;100557.00;;;;10104025;28;20300;-77
2023/08/27 18:14:20;;;;;;;1.30;0.68;;;;;16.70;100567.00;;;;10123228;28;20207;-77
2023/08/27 18:19:21;;;;;;;1.25;0.80;;;;;16.70;100577.00;;;;10127396;28;20213;-79
2023/08/27 18:24:23;;;;;;;1.20;0.88;;;;;16.50;100589.00;;;;10107013;28;20229;-78
2023/08/27 18:29:24;;;;;;;4.00;1.17;;;;;16.40;100598.00;;;;10126319;28;20213;-79
2023/08/27 18:34:25;;;;;;;3.08;0.80;;;;;16.20;100610.00;;;;10122952;28;20240;-78
2023/08/27 18:39:27;;;;;;;2.35;0.90;;;;;16.00;100612.00;;;;10099441;28;20233;-79
2023/08/27 18:44:28;;;;;;;2.08;1.00;;;;;15.80;100610.00;;;;10101955;28;20964;-80
2023/08/27 18:49:29;;;;;;;1.77;0.93;;;;;15.60;100610.00;;;;10117742;28;20210;-78
2023/08/27 18:54:30;;;;;;;1.95;1.00;;;;;15.40;100619.00;;;;10119981;28;20363;-78
2023/08/27 18:59:32;;;;;;;4.78;1.48;;;;;15.20;100629.00;;;;10120282;28;20218;-78
2023/08/27 19:04:34;;;;;;;1.90;1.08;;;;;15.00;100629.00;;;;10122694;28;20346;-77
2023/08/27 19:09:35;;;;;;;5.03;1.10;;;;;14.80;100640.00;;;;10083213;28;20290;-78
2023/08/27 19:14:37;;;;;;;1.45;0.93;;;;;14.70;100652.00;;;;10120273;28;20298;-78
2023/08/27 19:19:40;;;;;;;1.75;1.10;;;;;14.50;100655.00;;;;10085866;28;20215;-78
2023/08/27 19:24:43;;;;;;;2.08;1.63;;;;;14.50;100646.00;;;;10083795;28;20285;-77
2023/08/27 19:29:44;;;;;;;2.78;1.40;;;;;14.40;100659.00;;;;10090988;28;20211;-77
2023/08/27 19:34:45;;;;;;;3.92;1.70;;;;;14.30;100661.00;;;;10107219;28;20198;-78
2023/08/27 19:39:47;;;;;;;2.08;1.50;;;;;14.20;100658.00;;;;10079592;28;20221;-78
2023/08/27 19:44:48;;;;;;;1.65;1.40;;;;;14.20;100663.00;;;;10105057;28;20230;-78
2023/08/27 19:49:54;;;;;;;2.40;1.90;;;;;14.10;100673.00;;;;10078565;28;20203;-79
2023/08/27 19:54:55;;;;;;;3.67;1.40;;;;;14.10;100675.00;;;;10104999;28;20198;-79
2023/08/27 19:59:57;;;;;;;1.88;1.40;;;;;14.00;100674.00;;;;10078740;28;20297;-78
2023/08/27 20:04:58;;;;;;;3.65;1.70;;;;;13.90;100681.00;;;;10105862;28;20223;-78
2023/08/27 20:09:59;;;;;;;2.47;1.50;;;;;13.80;100677.00;;;;10089962;28;20354;-78
2023/08/27 20:15:01;;;;;;;1.33;1.23;;;;;13.80;100683.00;;;;10108925;28;20225;-78
2023/08/27 20:20:03;;;;;;;4.00;1.55;;;;;13.80;100691.00;;;;10102159;28;20293;-78
2023/08/27 20:25:05;;;;;;;3.53;1.90;;;;;13.90;100690.00;;;;10073633;28;20234;-79
2023/08/27 20:30:07;;;;;;;2.25;2.05;;;;;14.00;100693.00;;;;10093444;28;20221;-78
2023/08/27 20:35:09;;;;;;;4.13;2.20;;;;;14.20;100701.00;;;;10086019;28;20222;-77
2023/08/27 20:40:13;;;;;;;3.38;2.05;;;;;14.30;100704.00;;;;10083070;28;20225;-77
2023/08/27 20:45:15;;;;;;;2.35;2.05;;;;;14.40;100698.00;;;;10117393;28;20221;-78
2023/08/27 20:50:17;;;;;;;3.20;2.20;;;;;14.60;100704.00;;;;10117349;28;20208;-79
2023/08/27 20:55:18;;;;;;;2.58;2.05;;;;;14.70;100701.00;;;;10101601;28;20351;-77
2023/08/27 21:00:21;;;;;;;2.80;1.60;;;;;14.80;100701.00;;;;10066273;28;20275;-78
2023/08/27 21:05:23;;;;;;;3.03;1.63;;;;;14.80;100709.00;;;;10096115;28;20222;-78
2023/08/27 21:10:25;;;;;;;3.83;2.00;;;;;14.90;100701.00;;;;10099890;28;20240;-77
2023/08/27 21:15:26;;;;;;;2.03;1.85;;;;;14.90;100704.00;;;;10096907;28;20321;-78
2023/08/27 21:20:27;;;;;;;2.72;1.83;;;;;15.00;100710.00;;;;10131141;28;20684;-79
2023/08/27 21:25:29;;;;;;;6.47;1.90;;;;;15.10;100706.00;;;;10123176;28;20992;-78
2023/08/27 21:30:31;;;;;;;4.07;1.95;;;;;15.10;100703.00;;;;10097614;28;22001;-78
2023/08/27 21:35:32;;;;;;;2.92;2.17;;;;;15.20;100698.00;;;;10118066;28;20203;-77
2023/08/27 21:40:39;;;;;;;5.65;1.75;;;;;15.10;100704.00;;;;10107551;28;21013;-77
2023/08/27 21:45:40;;;;;;;2.35;1.60;;;;;15.10;100706.00;;;;10109998;28;20283;-78
2023/08/27 21:50:41;;;;;;;4.05;1.70;;;;;15.10;100708.00;;;;10098129;28;20241;-78
2023/08/27 21:55:43;;;;;;;4.00;1.58;;;;;15.20;100702.00;;;;10082665;28;20814;-78
2023/08/27 22:00:44;;;;;;;1.88;1.27;;;;;15.10;100716.00;;;;10092989;28;20302;-77
2023/08/27 22:05:46;;;;;;;3.60;1.65;;;;;15.00;100715.00;;;;10084795;28;20226;-76
2023/08/27 22:10:51;;;;;;;3.00;1.40;;;;;14.90;100722.00;;;;10078604;28;20230;-77
2023/08/27 22:15:53;;;;;;;2.58;1.70;;;;;14.80;100720.00;;;;10112967;28;20214;-78
2023/08/27 22:20:56;;;;;;;2.50;1.55;;;;;14.60;100712.00;;;;10066817;28;20210;-78
2023/08/27 22:25:57;;;;;;;5.00;1.90;;;;;14.40;100718.00;;;;10096572;28;20230;-78
2023/08/27 22:31:00;;;;;;;6.32;1.92;;;;;14.20;100730.00;;;;10115918;28;20301;-77
2023/08/27 22:36:01;;;;;;;3.63;1.90;;;;;14.10;100717.00;;;;10101266;28;20282;-77
2023/08/27 22:41:02;;;;;;;2.65;2.00;;;;;14.00;100712.00;;;;10087687;28;20224;-78
2023/08/27 22:46:04;;;;;;;3.25;1.48;;;;;13.90;100719.00;;;;10115805;28;21217;-78
2023/08/27 22:51:05;;;;;;;3.95;1.88;;;;;13.90;100723.00;;;;10056924;28;20300;-77
2023/08/27 22:56:06;;;;;;;4.15;1.88;;;;;13.90;100726.00;;;;10121204;28;21824;-78
2023/08/27 23:01:09;;;;;;;2.67;1.90;;;;;14.00;100723.00;;;;10111900;28;20214;-78
2023/08/27 23:06:10;;;;;;;2.97;1.67;;;;;14.10;100729.00;;;;10117374;28;20245;-78
2023/08/27 23:11:11;;;;;;;5.78;1.88;;;;;14.10;100731.00;;;;10060644;28;20478;-78
2023/08/27 23:16:13;;;;;;;3.15;2.60;;;;;14.20;100727.00;;;;10085972;28;20824;-78
2023/08/27 23:21:14;;;;;;;4.23;2.90;;;;;14.20;100723.00;;;;10088948;28;20287;-77
2023/08/27 23:26:16;;;;;;;4.55;2.58;;;;;14.20;100716.00;;;;10117205;28;20427;-78
2023/08/27 23:31:17;;;;;;;4.80;2.33;;;;;14.10;100715.00;;;;10095689;28;20529;-78
2023/08/27 23:36:19;;;;;;;2.88;2.10;;;;;14.00;100715.00;;;;10088682;28;20778;-78
2023/08/27 23:41:20;;;;;;;5.15;2.28;;;;;14.00;100706.00;;;;10087007;28;21380;-79
2023/08/27 23:46:21;;;;;;;6.90;2.00;;;;;14.00;100696.00;;;;10096105;28;20248;-78
2023/08/27 23:51:22;;;;;;;4.07;1.92;;;;;13.90;100702.00;;;;10085737;28;21536;-79
2023/08/27 23:56:24;;;;;;;5.78;1.85;;;;;13.80;100689.00;;;;10072677;28;20206;-77
